createdAt,value
2023-02-14T00:01:16.375Z,9.70
2023-02-14T00:03:42.849Z,9.77
2023-02-14T00:06:11.952Z,9.45
2023-02-14T00:08:40.808Z,9.90
2023-02-14T00:11:08.882Z,9.30
2023-02-14T00:13:35.377Z,9.30
2023-02-14T00:16:02.849Z,9.93
2023-02-14T00:18:47.812Z,9.98
2023-02-14T00:21:14.428Z,9.90
2023-02-14T00:23:40.880Z,10.48
2023-02-14T00:26:14.004Z,8.93
2023-02-14T00:28:42.491Z,9.80
2023-02-14T00:31:09.533Z,10.15
2023-02-14T00:33:36.466Z,9.95
2023-02-14T00:36:04.442Z,10.48
2023-02-14T00:38:31.042Z,10.73
2023-02-14T00:40:58.523Z,10.30
2023-02-14T00:43:25.310Z,10.93
2023-02-14T00:45:51.879Z,9.23
2023-02-14T00:48:19.198Z,10.52
2023-02-14T00:50:46.670Z,11.00
2023-02-14T00:53:13.613Z,11.02
2023-02-14T00:55:40.119Z,11.68
2023-02-14T00:58:08.132Z,13.02
2023-02-14T01:00:34.760Z,12.43
2023-02-14T01:03:01.358Z,12.23
2023-02-14T01:05:29.025Z,12.85
2023-02-14T01:07:55.791Z,15.70
2023-02-14T01:10:22.528Z,14.90
2023-02-14T01:12:49.022Z,13.90
2023-02-14T01:15:15.550Z,15.00
2023-02-14T01:17:43.896Z,14.80
2023-02-14T01:20:10.745Z,14.70
2023-02-14T01:22:38.083Z,14.00
2023-02-14T01:25:04.873Z,13.65
2023-02-14T01:27:31.450Z,14.82
2023-02-14T01:29:58.079Z,15.43
2023-02-14T01:32:24.680Z,14.30
2023-02-14T01:34:51.401Z,13.63
2023-02-14T01:37:17.918Z,13.95
2023-02-14T01:39:44.625Z,13.90
2023-02-14T01:42:14.458Z,14.45
2023-02-14T01:44:40.927Z,13.77
2023-02-14T01:47:08.851Z,14.02
2023-02-14T01:49:41.563Z,13.55
2023-02-14T01:52:29.801Z,12.45
2023-02-14T01:55:26.292Z,12.75
2023-02-14T01:57:59.524Z,12.93
2023-02-14T02:00:44.812Z,12.95
2023-02-14T02:03:12.273Z,13.05
2023-02-14T02:05:42.384Z,11.60
2023-02-14T02:08:08.955Z,12.23
2023-02-14T02:10:35.443Z,11.85
2023-02-14T02:13:07.512Z,11.30
2023-02-14T02:16:06.605Z,12.73
2023-02-14T02:18:51.654Z,12.80
2023-02-14T02:21:41.682Z,12.65
2023-02-14T02:24:35.981Z,12.05
2023-02-14T02:27:19.359Z,12.15
2023-02-14T02:30:03.876Z,11.70
2023-02-14T02:32:42.987Z,11.77
2023-02-14T02:35:41.940Z,12.25
2023-02-14T02:38:26.874Z,12.35
2023-02-14T02:41:04.916Z,11.70
2023-02-14T02:44:03.751Z,11.48
2023-02-14T02:46:52.378Z,12.98
2023-02-14T02:50:04.456Z,12.82
2023-02-14T02:52:52.726Z,13.02
2023-02-14T02:55:27.924Z,14.07
2023-02-14T02:57:55.194Z,13.63
2023-02-14T03:00:22.835Z,14.02
2023-02-14T03:03:10.352Z,14.52
2023-02-14T03:05:37.151Z,14.07
2023-02-14T03:08:04.982Z,15.02
2023-02-14T03:10:35.670Z,13.32
2023-02-14T03:13:26.346Z,13.18
2023-02-14T03:15:54.155Z,14.50
2023-02-14T03:18:30.227Z,13.38
2023-02-14T03:21:26.425Z,12.27
2023-02-14T03:24:19.874Z,13.63
2023-02-14T03:27:01.375Z,12.45
2023-02-14T03:29:34.741Z,12.88
2023-02-14T03:32:09.842Z,12.23
2023-02-14T03:34:54.359Z,12.02
2023-02-14T03:37:29.291Z,12.98
2023-02-14T03:40:13.827Z,12.77
2023-02-14T03:42:44.661Z,13.25
2023-02-14T03:45:16.185Z,13.10
2023-02-14T03:47:43.738Z,13.57
2023-02-14T03:50:14.676Z,13.35
2023-02-14T03:52:41.971Z,13.73
2023-02-14T03:55:09.553Z,12.68
2023-02-14T03:57:57.447Z,13.07
2023-02-14T04:00:24.293Z,13.18
2023-02-14T04:02:57.139Z,13.23
2023-02-14T04:05:26.287Z,13.52
2023-02-14T04:07:55.933Z,14.25
2023-02-14T04:10:22.947Z,12.65
2023-02-14T04:12:50.066Z,14.30
2023-02-14T04:15:17.178Z,14.02
2023-02-14T04:18:02.095Z,14.05
2023-02-14T04:20:29.236Z,13.50
2023-02-14T04:22:55.976Z,14.20
2023-02-14T04:25:23.395Z,13.95
2023-02-14T04:27:49.939Z,14.80
2023-02-14T04:30:17.982Z,13.68
2023-02-14T04:32:44.584Z,14.25
2023-02-14T04:35:11.251Z,15.45
2023-02-14T04:37:37.848Z,14.75
2023-02-14T04:40:05.002Z,15.57
2023-02-14T04:42:31.537Z,15.88
2023-02-14T04:44:58.736Z,14.68
2023-02-14T04:47:25.268Z,16.30
2023-02-14T04:49:51.798Z,15.40
2023-02-14T04:52:18.330Z,14.40
2023-02-14T04:54:44.823Z,16.02
2023-02-14T04:57:11.408Z,16.75
2023-02-14T04:59:37.910Z,16.60
2023-02-14T05:02:04.507Z,16.85
2023-02-14T05:04:31.188Z,15.90
2023-02-14T05:06:57.709Z,17.70
2023-02-14T05:09:24.272Z,18.27
2023-02-14T05:11:51.726Z,17.52
2023-02-14T05:14:18.222Z,17.42
2023-02-14T05:16:44.927Z,17.88
2023-02-14T05:19:11.654Z,18.27
2023-02-14T05:21:38.635Z,18.85
2023-02-14T05:24:05.254Z,18.92
2023-02-14T05:26:31.756Z,19.50
2023-02-14T05:28:59.058Z,18.27
2023-02-14T05:31:25.593Z,17.70
2023-02-14T05:33:52.154Z,19.25
2023-02-14T05:36:18.625Z,17.90
2023-02-14T05:38:45.133Z,18.10
2023-02-14T05:41:12.441Z,19.23
2023-02-14T05:43:39.001Z,17.60
2023-02-14T05:46:05.734Z,18.67
2023-02-14T05:48:32.274Z,18.85
2023-02-14T05:51:06.769Z,20.20
2023-02-14T05:53:33.617Z,20.20
2023-02-14T05:56:00.187Z,18.65
2023-02-14T05:58:26.748Z,21.08
2023-02-14T06:00:53.268Z,21.30
2023-02-14T06:03:19.849Z,18.92
2023-02-14T06:05:46.367Z,18.83
2023-02-14T06:08:12.828Z,19.88
2023-02-14T06:10:39.330Z,19.17
2023-02-14T06:13:08.967Z,20.60
2023-02-14T06:15:36.425Z,21.65
2023-02-14T06:18:03.896Z,22.23
2023-02-14T06:20:30.564Z,21.33
2023-02-14T06:22:57.344Z,20.77
2023-02-14T06:25:24.826Z,21.50
2023-02-14T06:27:51.884Z,21.25
2023-02-14T06:30:18.497Z,21.00
2023-02-14T06:32:45.008Z,22.40
2023-02-14T06:35:11.595Z,23.63
2023-02-14T06:37:41.300Z,23.92
2023-02-14T06:40:09.545Z,23.52
2023-02-14T06:42:36.086Z,24.60
2023-02-14T06:45:02.822Z,23.35
2023-02-14T06:47:29.311Z,24.33
2023-02-14T06:49:55.802Z,24.15
2023-02-14T06:52:22.447Z,23.60
2023-02-14T06:54:48.985Z,20.88
2023-02-14T06:57:15.463Z,23.38
2023-02-14T06:59:42.559Z,22.30
2023-02-14T07:02:11.329Z,20.42
2023-02-14T07:04:37.878Z,20.05
2023-02-14T07:07:04.966Z,22.40
2023-02-14T07:09:31.474Z,20.98
2023-02-14T07:11:57.988Z,22.05
2023-02-14T07:14:24.585Z,21.85
2023-02-14T07:16:51.075Z,20.70
2023-02-14T07:19:17.546Z,20.85
2023-02-14T07:21:44.059Z,21.40
2023-02-14T07:24:10.590Z,22.08
2023-02-14T07:26:37.077Z,21.77
2023-02-14T07:29:03.605Z,21.38
2023-02-14T07:31:30.155Z,22.42
2023-02-14T07:34:00.684Z,20.50
2023-02-14T07:36:27.406Z,21.50
2023-02-14T07:38:56.114Z,21.52
2023-02-14T07:41:23.132Z,20.15
2023-02-14T07:43:49.655Z,19.88
2023-02-14T07:46:17.336Z,19.80
2023-02-14T07:48:43.947Z,20.83
2023-02-14T07:51:11.121Z,19.60
2023-02-14T07:53:37.643Z,20.55
2023-02-14T07:56:04.359Z,19.27
2023-02-14T07:58:30.907Z,20.70
2023-02-14T08:00:57.932Z,19.65
2023-02-14T08:03:24.735Z,20.05
2023-02-14T08:05:57.120Z,18.83
2023-02-14T08:08:28.804Z,18.08
2023-02-14T08:10:55.534Z,20.02
2023-02-14T08:13:22.227Z,18.27
2023-02-14T08:16:04.898Z,17.40
2023-02-14T08:18:40.427Z,18.90
2023-02-14T08:21:09.370Z,18.27
2023-02-14T08:23:36.825Z,18.65
2023-02-14T08:26:03.561Z,19.20
2023-02-14T08:28:32.139Z,18.83
2023-02-14T08:30:59.104Z,18.40
2023-02-14T08:33:25.924Z,18.77
2023-02-14T08:35:52.589Z,19.00
2023-02-14T08:38:19.336Z,20.60
2023-02-14T08:40:46.026Z,20.25
2023-02-14T08:43:13.203Z,19.33
2023-02-14T08:45:39.921Z,21.65
2023-02-14T08:48:08.796Z,18.85
2023-02-14T08:50:35.967Z,20.88
2023-02-14T08:53:09.642Z,19.10
2023-02-14T08:55:36.855Z,19.20
2023-02-14T08:58:04.375Z,20.05
2023-02-14T09:00:31.912Z,19.48
2023-02-14T09:02:58.820Z,20.00
2023-02-14T09:05:25.891Z,18.17
2023-02-14T09:07:53.036Z,20.60
2023-02-14T09:10:19.611Z,19.92
2023-02-14T09:12:46.166Z,19.65
2023-02-14T09:15:13.204Z,19.08
2023-02-14T09:17:39.905Z,19.98
2023-02-14T09:20:08.183Z,19.80
2023-02-14T09:22:34.998Z,19.08
2023-02-14T09:25:01.704Z,20.30
2023-02-14T09:27:28.586Z,21.42
2023-02-14T09:29:55.171Z,22.25
2023-02-14T09:32:21.809Z,23.38
2023-02-14T09:34:48.363Z,21.52
2023-02-14T09:37:15.261Z,21.02
2023-02-14T09:39:41.749Z,20.05
2023-02-14T09:42:40.514Z,19.65
2023-02-14T09:45:12.682Z,21.83
2023-02-14T09:48:06.765Z,20.67
2023-02-14T09:50:40.140Z,21.83
2023-02-14T09:53:16.354Z,22.60
2023-02-14T09:55:56.061Z,22.45
2023-02-14T09:58:28.753Z,21.77
2023-02-14T10:01:27.455Z,22.23
2023-02-14T10:04:24.932Z,21.83
2023-02-14T10:07:15.158Z,23.33
2023-02-14T10:10:02.241Z,23.92
2023-02-14T10:12:34.970Z,23.88
2023-02-14T10:15:06.835Z,25.20
2023-02-14T10:17:49.853Z,23.30
2023-02-14T10:20:32.770Z,24.42
2023-02-14T10:23:17.078Z,24.60
2023-02-14T10:25:53.074Z,24.88
2023-02-14T10:28:25.054Z,24.15
2023-02-14T10:31:04.526Z,24.58
2023-02-14T10:33:33.283Z,22.98
2023-02-14T10:36:19.171Z,22.58
2023-02-14T10:38:57.728Z,22.40
2023-02-14T10:41:49.240Z,23.35
2023-02-14T10:47:10.153Z,22.27
2023-02-14T10:49:56.382Z,20.42
2023-02-14T10:52:48.983Z,20.70
2023-02-14T10:55:32.087Z,21.63
2023-02-14T10:57:59.172Z,21.15
2023-02-14T11:00:30.123Z,21.17
2023-02-14T11:02:58.248Z,20.55
2023-02-14T11:05:40.388Z,19.25
2023-02-14T11:08:26.898Z,19.80
2023-02-14T11:11:07.225Z,20.83
2023-02-14T11:13:36.652Z,20.52
2023-02-14T11:16:11.486Z,21.40
2023-02-14T11:18:39.964Z,20.92
2023-02-14T11:21:06.474Z,22.05
2023-02-14T11:23:39.997Z,20.73
2023-02-14T11:26:27.175Z,21.25
2023-02-14T11:28:53.586Z,19.85
2023-02-14T11:31:34.745Z,22.45
2023-02-14T11:34:05.026Z,20.98
2023-02-14T11:36:32.433Z,20.83
2023-02-14T11:39:17.780Z,20.38
2023-02-14T11:41:52.941Z,21.42
2023-02-14T11:44:22.817Z,21.83
2023-02-14T11:46:53.474Z,18.88
2023-02-14T11:49:34.228Z,20.50
2023-02-14T11:52:10.329Z,19.47
2023-02-14T11:54:39.324Z,19.80
2023-02-14T11:57:13.349Z,20.38
2023-02-14T11:59:48.242Z,20.13
2023-02-14T12:02:26.012Z,20.77
2023-02-14T12:04:59.258Z,20.40
2023-02-14T12:07:30.461Z,20.00
2023-02-14T12:10:17.783Z,20.73
2023-02-14T12:13:00.322Z,20.08
2023-02-14T12:15:34.634Z,21.15
2023-02-14T12:18:18.264Z,19.67
2023-02-14T12:21:02.211Z,20.55
2023-02-14T12:23:45.633Z,19.33
2023-02-14T12:26:27.862Z,19.77
2023-02-14T12:29:06.424Z,20.88
2023-02-14T12:31:33.042Z,19.92
2023-02-14T12:33:59.635Z,20.73
2023-02-14T12:36:51.047Z,18.75
2023-02-14T12:39:23.184Z,20.30
2023-02-14T12:42:09.264Z,21.17
2023-02-14T12:45:07.847Z,19.95
2023-02-14T12:47:50.604Z,19.52
2023-02-14T12:50:27.819Z,19.25
2023-02-14T12:53:13.053Z,19.77
2023-02-14T12:55:58.784Z,19.73
2023-02-14T12:58:44.558Z,20.80
2023-02-14T13:01:10.988Z,20.90
2023-02-14T13:03:52.561Z,20.42
2023-02-14T13:06:31.193Z,19.55
2023-02-14T13:09:13.291Z,19.95
2023-02-14T13:11:48.444Z,20.27
2023-02-14T13:14:37.834Z,20.02
2023-02-14T13:17:44.559Z,20.20
2023-02-14T13:20:32.766Z,20.13
2023-02-14T13:23:03.211Z,20.00
2023-02-14T13:25:33.564Z,14.90
2023-02-14T13:28:03.011Z,14.48
2023-02-14T13:30:32.600Z,18.40
2023-02-14T13:33:02.864Z,21.33
2023-02-14T13:35:30.223Z,18.30
2023-02-14T13:38:00.539Z,18.50
2023-02-14T13:40:28.310Z,18.02
2023-02-14T13:42:58.345Z,18.05
2023-02-14T13:45:40.992Z,18.85
2023-02-14T13:48:24.807Z,17.75
2023-02-14T13:51:04.950Z,17.98
2023-02-14T13:53:34.358Z,20.58
2023-02-14T13:56:03.303Z,15.88
2023-02-14T13:58:30.107Z,16.75
2023-02-14T14:00:56.859Z,16.67
2023-02-14T14:03:26.079Z,17.02
2023-02-14T14:06:03.238Z,18.00
2023-02-14T14:08:31.272Z,16.45
2023-02-14T14:11:03.561Z,17.35
2023-02-14T14:13:50.281Z,17.38
2023-02-14T14:16:28.676Z,15.88
2023-02-14T14:19:27.413Z,15.40
2023-02-14T14:22:09.278Z,15.90
2023-02-14T14:24:40.286Z,15.85
2023-02-14T14:27:15.590Z,16.60
2023-02-14T14:30:01.840Z,15.27
2023-02-14T14:32:32.040Z,16.20
2023-02-14T14:35:01.902Z,16.75
2023-02-14T14:37:33.565Z,15.55
2023-02-14T14:40:04.927Z,15.68
2023-02-14T14:45:07.981Z,15.80
2023-02-14T14:47:43.531Z,15.50
2023-02-14T14:50:16.512Z,16.77
2023-02-14T14:52:48.311Z,17.25
2023-02-14T14:55:22.471Z,16.52
2023-02-14T14:57:54.173Z,16.10
2023-02-14T15:00:29.126Z,17.05
2023-02-14T15:03:04.140Z,16.52
2023-02-14T15:05:37.894Z,17.73
2023-02-14T15:08:19.437Z,18.15
2023-02-14T15:11:10.740Z,16.90
2023-02-14T15:13:49.449Z,16.40
2023-02-14T15:16:27.943Z,16.63
2023-02-14T15:19:01.016Z,16.40
2023-02-14T15:21:28.020Z,15.80
2023-02-14T15:23:54.703Z,16.27
2023-02-14T15:26:28.489Z,15.60
2023-02-14T15:29:04.528Z,16.13
2023-02-14T15:31:40.959Z,16.65
2023-02-14T15:34:08.069Z,15.40
2023-02-14T15:36:35.196Z,15.77
2023-02-14T15:39:06.146Z,16.13
2023-02-14T15:41:32.638Z,16.52
2023-02-14T15:43:59.461Z,14.98
2023-02-14T15:46:37.204Z,16.45
2023-02-14T15:49:09.625Z,14.32
2023-02-14T15:51:37.989Z,16.45
2023-02-14T15:54:19.281Z,16.08
2023-02-14T15:56:50.842Z,15.77
2023-02-14T15:59:23.360Z,15.75
2023-02-14T16:01:52.573Z,15.35
2023-02-14T16:04:24.633Z,15.55
2023-02-14T16:07:24.713Z,15.70
2023-02-14T16:10:21.767Z,15.05
2023-02-14T16:13:16.117Z,15.07
2023-02-14T16:15:59.436Z,15.25
2023-02-14T16:18:42.512Z,15.20
2023-02-14T16:21:15.025Z,15.60
2023-02-14T16:23:42.753Z,17.50
2023-02-14T16:26:09.266Z,16.52
2023-02-14T16:28:38.554Z,15.52
2023-02-14T16:31:10.303Z,16.45
2023-02-14T16:33:39.556Z,16.38
2023-02-14T16:36:20.069Z,15.00
2023-02-14T16:38:46.879Z,15.80
2023-02-14T16:41:25.981Z,16.77
2023-02-14T16:43:52.964Z,16.33
2023-02-14T16:46:25.300Z,16.10
2023-02-14T16:48:52.485Z,16.70
2023-02-14T16:51:21.289Z,15.50
2023-02-14T16:53:47.798Z,17.20
2023-02-14T16:56:30.010Z,18.13
2023-02-14T16:58:57.829Z,18.52
2023-02-14T17:01:25.185Z,17.58
2023-02-14T17:03:51.728Z,17.27
2023-02-14T17:06:27.305Z,18.52
2023-02-14T17:08:55.090Z,17.48
2023-02-14T17:11:23.517Z,17.88
2023-02-14T17:13:51.056Z,17.17
2023-02-14T17:16:17.965Z,17.90
2023-02-14T17:18:47.562Z,17.63
2023-02-14T17:21:15.090Z,18.02
2023-02-14T17:23:41.623Z,19.00
2023-02-14T17:26:09.308Z,18.90
2023-02-14T17:28:35.868Z,18.13
2023-02-14T17:31:03.572Z,19.55
2023-02-14T17:33:33.289Z,18.98
2023-02-14T17:36:06.615Z,18.98
2023-02-14T17:38:34.644Z,20.33
2023-02-14T17:41:10.833Z,19.67
2023-02-14T17:43:37.766Z,18.45
2023-02-14T17:46:05.417Z,20.38
2023-02-14T17:48:31.970Z,19.50
2023-02-14T17:51:03.976Z,20.25
2023-02-14T17:53:30.556Z,20.73
2023-02-14T17:55:57.984Z,22.08
2023-02-14T17:58:24.531Z,20.92
2023-02-14T18:00:51.047Z,19.65
2023-02-14T18:03:17.640Z,20.38
2023-02-14T18:05:44.432Z,21.13
2023-02-14T18:08:10.930Z,21.33
2023-02-14T18:10:37.703Z,20.23
2023-02-14T18:13:04.193Z,20.73
2023-02-14T18:15:30.750Z,19.50
2023-02-14T18:17:57.549Z,21.65
2023-02-14T18:20:24.031Z,20.05
2023-02-14T18:22:50.556Z,20.98
2023-02-14T18:25:18.313Z,20.95
2023-02-14T18:27:45.276Z,21.42
2023-02-14T18:30:12.129Z,19.98
2023-02-14T18:32:38.659Z,22.27
2023-02-14T18:35:05.378Z,26.13
2023-02-14T18:37:31.934Z,22.90
2023-02-14T18:39:58.452Z,22.73
2023-02-14T18:42:24.976Z,21.08
2023-02-14T18:44:51.437Z,22.90
2023-02-14T18:47:18.021Z,21.45
2023-02-14T18:49:44.570Z,20.75
2023-02-14T18:52:11.044Z,20.75
2023-02-14T18:54:37.681Z,19.92
2023-02-14T18:57:04.174Z,19.95
2023-02-14T18:59:30.820Z,20.70
2023-02-14T19:01:57.374Z,18.85
2023-02-14T19:04:23.978Z,20.13
2023-02-14T19:06:50.699Z,19.48
2023-02-14T19:09:18.579Z,18.65
2023-02-14T19:11:45.313Z,17.73
2023-02-14T19:14:13.200Z,19.27
2023-02-14T19:16:50.090Z,18.63
2023-02-14T19:19:17.374Z,18.83
2023-02-14T19:21:43.913Z,20.55
2023-02-14T19:24:10.456Z,19.70
2023-02-14T19:26:40.486Z,19.33
2023-02-14T19:29:13.356Z,18.98
2023-02-14T19:31:42.768Z,19.08
2023-02-14T19:34:16.039Z,19.33
2023-02-14T19:36:42.570Z,18.13
2023-02-14T19:39:10.700Z,17.58
2023-02-14T19:41:37.507Z,19.30
2023-02-14T19:44:05.909Z,19.15
2023-02-14T19:46:33.066Z,19.45
2023-02-14T19:49:00.457Z,19.73
2023-02-14T19:51:30.592Z,19.40
2023-02-14T19:53:58.648Z,20.80
2023-02-14T19:56:31.176Z,19.60
2023-02-14T19:58:57.823Z,20.23
2023-02-14T20:01:31.329Z,19.95
2023-02-14T20:03:57.940Z,20.85
2023-02-14T20:06:25.744Z,19.52
2023-02-14T20:08:52.236Z,19.33
2023-02-14T20:11:41.269Z,19.05
2023-02-14T20:14:08.355Z,19.70
2023-02-14T20:16:36.848Z,19.08
2023-02-14T20:19:11.834Z,18.40
2023-02-14T20:21:41.693Z,19.70
2023-02-14T20:24:09.358Z,19.30
2023-02-14T20:26:37.152Z,19.45
2023-02-14T20:29:05.096Z,19.13
2023-02-14T20:31:33.064Z,18.15
2023-02-14T20:34:00.017Z,20.48
2023-02-14T20:36:27.092Z,19.98
2023-02-14T20:38:57.702Z,19.77
2023-02-14T20:41:24.559Z,21.48
2023-02-14T20:43:51.123Z,18.63
2023-02-14T20:46:17.778Z,20.17
2023-02-14T20:48:44.312Z,20.83
2023-02-14T20:51:15.592Z,19.90
2023-02-14T20:53:43.448Z,20.50
2023-02-14T20:56:10.013Z,21.17
2023-02-14T20:58:38.275Z,19.33
2023-02-14T21:01:16.482Z,21.08
2023-02-14T21:03:46.527Z,20.92
2023-02-14T21:06:14.327Z,21.02
2023-02-14T21:08:42.499Z,21.33
2023-02-14T21:11:10.929Z,19.60
2023-02-14T21:13:37.740Z,19.70
2023-02-14T21:16:15.346Z,20.48
2023-02-14T21:18:44.400Z,21.00
2023-02-14T21:21:18.019Z,21.27
2023-02-14T21:23:45.067Z,20.40
2023-02-14T21:26:11.599Z,20.92
2023-02-14T21:28:38.105Z,22.60
2023-02-14T21:31:06.440Z,21.17
2023-02-14T21:33:33.322Z,22.60
2023-02-14T21:36:10.848Z,22.67
2023-02-14T21:38:37.494Z,21.55
2023-02-14T21:41:14.716Z,23.00
2023-02-14T21:43:43.879Z,22.90
2023-02-14T21:46:12.759Z,21.00
2023-02-14T21:48:58.249Z,21.92
2023-02-14T21:51:25.110Z,20.65
2023-02-14T21:53:51.606Z,23.90
2023-02-14T21:56:19.773Z,23.33
2023-02-14T21:58:48.422Z,23.10
2023-02-14T22:01:25.261Z,24.02
2023-02-14T22:03:52.574Z,23.73
2023-02-14T22:06:19.181Z,23.63
2023-02-14T22:08:45.766Z,24.02
2023-02-14T22:11:15.170Z,23.63
2023-02-14T22:13:41.920Z,24.88
2023-02-14T22:16:11.521Z,23.45
2023-02-14T22:18:38.643Z,24.33
2023-02-14T22:21:07.536Z,22.30
2023-02-14T22:23:34.827Z,23.45
2023-02-14T22:26:13.005Z,23.58
2023-02-14T22:28:40.527Z,23.05
2023-02-14T22:31:07.344Z,24.02
2023-02-14T22:33:34.800Z,26.08
2023-02-14T22:36:02.831Z,23.67
2023-02-14T22:38:29.714Z,25.40
2023-02-14T22:40:56.647Z,24.60
2023-02-14T22:43:23.314Z,24.15
2023-02-14T22:45:49.916Z,24.20
2023-02-14T22:48:17.741Z,25.85
2023-02-14T22:50:44.448Z,24.98
2023-02-14T22:53:10.991Z,24.65
2023-02-14T22:55:37.466Z,26.08
2023-02-14T22:58:04.076Z,25.65
2023-02-14T23:00:30.646Z,25.65
2023-02-14T23:02:57.237Z,24.15
2023-02-14T23:05:23.729Z,26.70
2023-02-14T23:07:50.215Z,25.77
2023-02-14T23:10:16.720Z,25.50
2023-02-14T23:13:01.599Z,26.63
2023-02-14T23:15:46.532Z,26.55
2023-02-14T23:18:31.873Z,26.02
2023-02-14T23:21:16.585Z,26.63
2023-02-14T23:23:43.089Z,26.52
2023-02-14T23:26:09.639Z,26.23
2023-02-14T23:28:36.284Z,24.88
2023-02-14T23:31:03.048Z,28.25
2023-02-14T23:33:29.559Z,26.25
2023-02-14T23:35:56.064Z,28.08
2023-02-14T23:38:22.915Z,28.23
2023-02-14T23:41:12.529Z,26.77
2023-02-14T23:43:39.332Z,27.95
2023-02-14T23:46:05.837Z,28.80
2023-02-14T23:48:32.408Z,27.58
2023-02-14T23:51:00.825Z,29.42
2023-02-14T23:53:27.363Z,29.63
2023-02-14T23:56:00.738Z,27.58
2023-02-14T23:58:27.506Z,27.48
